Time;durP1;ratioP1;P1;durP2;ratioP2;P2;SDS_P1;SDS_P2;PMS_P1;PMS_P2;Temp;Humidity;BMP_temperature;BMP_pressure;BME280_temperature;BME280_humidity;BME280_pressure;Samples;Min_cycle;Max_cycle;Signal;HPM_P1;HPM_P2
2022/03/06 00:00:26;;;;;;;;;;;3.40;66.80;;;;;;5073730;28;19977;-75
2022/03/06 00:02:53;;;;;;;;;;;3.40;67.10;;;;;;5064707;28;19921;-75
2022/03/06 00:05:20;;;;;;;;;;;3.40;66.70;;;;;;5067415;28;19924;-76
2022/03/06 00:07:46;;;;;;;;;;;3.40;67.90;;;;;;5072930;28;19920;-75
2022/03/06 00:10:13;;;;;;;;;;;3.40;68.20;;;;;;5075667;28;20299;-76
2022/03/06 00:12:40;;;;;;;;;;;3.40;67.80;;;;;;5077755;28;19943;-77
2022/03/06 00:15:07;;;;;;;;;;;3.40;68.40;;;;;;5076123;28;19924;-77
2022/03/06 00:17:34;;;;;;;;;;;3.40;68.70;;;;;;5082732;28;19925;-76
2022/03/06 00:20:02;;;;;;;;;;;3.40;69.10;;;;;;5069331;28;20391;-77
2022/03/06 00:22:29;;;;;;;;;;;3.40;68.80;;;;;;5069637;28;19974;-77
2022/03/06 00:24:57;;;;;;;;;;;3.40;68.40;;;;;;5071641;28;19929;-76
2022/03/06 00:27:24;;;;;;;;;;;3.40;68.20;;;;;;5068723;28;19920;-76
2022/03/06 00:29:51;;;;;;;;;;;3.40;69.00;;;;;;5071552;28;19920;-76
2022/03/06 00:32:18;;;;;;;;;;;3.40;68.60;;;;;;5072882;28;19929;-77
2022/03/06 00:34:46;;;;;;;;;;;3.40;69.10;;;;;;5076015;28;19935;-76
2022/03/06 00:37:13;;;;;;;;;;;3.40;68.80;;;;;;5073995;28;19921;-75
2022/03/06 00:39:39;;;;;;;;;;;3.40;68.90;;;;;;5066453;28;19970;-75
2022/03/06 00:42:07;;;;;;;;;;;3.40;68.70;;;;;;5072302;28;19920;-77
2022/03/06 00:44:34;;;;;;;;;;;3.40;68.00;;;;;;5069047;28;19985;-77
2022/03/06 00:47:01;;;;;;;;;;;3.40;67.70;;;;;;5070644;28;20380;-75
2022/03/06 00:49:29;;;;;;;;;;;3.40;67.40;;;;;;5068024;28;20331;-77
2022/03/06 00:51:57;;;;;;;;;;;3.40;67.50;;;;;;5063519;28;19954;-76
2022/03/06 00:54:24;;;;;;;;;;;3.50;67.30;;;;;;5069124;28;19924;-77
2022/03/06 00:56:51;;;;;;;;;;;3.50;66.90;;;;;;5065142;28;19928;-76
2022/03/06 00:59:18;;;;;;;;;;;3.60;66.80;;;;;;5066451;28;19924;-76
2022/03/06 01:01:45;;;;;;;;;;;3.60;66.70;;;;;;5077215;28;19974;-76
2022/03/06 01:04:12;;;;;;;;;;;3.60;66.80;;;;;;5073997;28;19920;-77
2022/03/06 01:06:39;;;;;;;;;;;3.50;69.50;;;;;;5072242;28;19931;-77
2022/03/06 01:09:06;;;;;;;;;;;3.50;69.40;;;;;;5070139;28;20342;-75
2022/03/06 01:11:34;;;;;;;;;;;3.50;69.60;;;;;;5071543;28;19924;-75
2022/03/06 01:14:01;;;;;;;;;;;3.40;69.50;;;;;;5066171;28;20349;-73
2022/03/06 01:16:27;;;;;;;;;;;3.40;69.40;;;;;;5067469;28;19982;-75
2022/03/06 01:18:54;;;;;;;;;;;3.40;70.10;;;;;;5071590;28;19920;-75
2022/03/06 01:21:21;;;;;;;;;;;3.40;69.90;;;;;;5071539;28;19920;-76
2022/03/06 01:23:48;;;;;;;;;;;3.40;70.20;;;;;;5071311;28;19920;-76
2022/03/06 01:26:16;;;;;;;;;;;3.40;69.80;;;;;;5071065;28;20438;-77
2022/03/06 01:28:43;;;;;;;;;;;3.40;69.80;;;;;;5080830;28;19921;-76
2022/03/06 01:31:10;;;;;;;;;;;3.40;69.80;;;;;;5068074;28;19989;-76
2022/03/06 01:33:37;;;;;;;;;;;3.40;70.50;;;;;;5075103;28;19921;-77
2022/03/06 01:36:04;;;;;;;;;;;3.40;69.40;;;;;;5077466;28;19924;-75
2022/03/06 01:38:31;;;;;;;;;;;3.40;69.50;;;;;;5074140;28;19942;-77
2022/03/06 01:40:57;;;;;;;;;;;3.50;69.20;;;;;;5070696;28;19970;-77
2022/03/06 01:43:24;;;;;;;;;;;3.50;68.80;;;;;;5066012;28;19979;-76
2022/03/06 01:45:51;;;;;;;;;;;3.50;68.60;;;;;;5066100;28;19978;-77
2022/03/06 01:48:18;;;;;;;;;;;3.50;68.70;;;;;;5072498;28;19971;-77
2022/03/06 01:50:45;;;;;;;;;;;3.50;69.10;;;;;;5062582;28;20544;-77
2022/03/06 01:53:12;;;;;;;;;;;3.50;68.90;;;;;;5080752;28;20307;-77
2022/03/06 01:55:39;;;;;;;;;;;3.50;68.80;;;;;;5067457;28;20521;-76
2022/03/06 01:58:07;;;;;;;;;;;3.50;68.50;;;;;;5069997;28;19924;-77
2022/03/06 02:00:38;;;;;;;;;;;3.50;68.40;;;;;;5073973;28;19928;-77
2022/03/06 02:03:05;;;;;;;;;;;3.50;68.80;;;;;;5069383;28;19921;-75
2022/03/06 02:05:33;;;;;;;;;;;3.50;68.40;;;;;;5074950;28;19928;-76
2022/03/06 02:08:00;;;;;;;;;;;3.50;68.40;;;;;;5066149;28;20383;-77
2022/03/06 02:10:26;;;;;;;;;;;3.50;68.40;;;;;;5067874;28;19974;-77
2022/03/06 02:12:53;;;;;;;;;;;3.40;68.50;;;;;;5074397;28;19975;-75
2022/03/06 02:15:20;;;;;;;;;;;3.40;68.70;;;;;;5079647;28;19925;-77
2022/03/06 02:17:47;;;;;;;;;;;3.40;68.80;;;;;;5076791;28;19920;-76
2022/03/06 02:20:15;;;;;;;;;;;3.40;68.80;;;;;;5076348;28;19924;-76
2022/03/06 02:22:43;;;;;;;;;;;3.40;69.10;;;;;;5078706;28;19921;-75
2022/03/06 02:25:17;;;;;;;;;;;3.40;69.10;;;;;;5072363;28;19951;-77
2022/03/06 02:27:44;;;;;;;;;;;3.40;68.70;;;;;;5072452;28;19928;-75
2022/03/06 02:30:12;;;;;;;;;;;3.40;69.00;;;;;;5071280;28;19956;-76
2022/03/06 02:32:39;;;;;;;;;;;3.40;69.10;;;;;;5074464;28;19974;-77
2022/03/06 02:35:07;;;;;;;;;;;3.40;69.20;;;;;;5067128;28;19959;-77
2022/03/06 02:37:34;;;;;;;;;;;3.40;69.10;;;;;;5076175;28;19982;-77
2022/03/06 02:40:03;;;;;;;;;;;3.40;69.10;;;;;;5071984;28;19951;-77
2022/03/06 02:42:31;;;;;;;;;;;3.40;69.60;;;;;;5072462;28;19928;-77
2022/03/06 02:44:58;;;;;;;;;;;3.40;70.10;;;;;;5077925;28;19943;-76
2022/03/06 02:47:26;;;;;;;;;;;3.30;70.60;;;;;;5079033;28;20380;-77
2022/03/06 02:49:53;;;;;;;;;;;3.30;69.70;;;;;;5071077;28;19932;-76
2022/03/06 02:52:20;;;;;;;;;;;3.30;70.50;;;;;;5072676;28;19955;-77
2022/03/06 02:54:47;;;;;;;;;;;3.30;70.70;;;;;;5076692;28;19975;-76
2022/03/06 02:57:14;;;;;;;;;;;3.30;71.40;;;;;;5075644;28;19928;-76
2022/03/06 02:59:40;;;;;;;;;;;3.30;69.10;;;;;;5079346;28;19928;-77
2022/03/06 03:02:07;;;;;;;;;;;3.50;66.60;;;;;;5071442;28;20395;-76
2022/03/06 03:04:37;;;;;;;;;;;3.60;65.40;;;;;;5066287;28;19959;-76
2022/03/06 03:07:03;;;;;;;;;;;3.80;62.00;;;;;;5078392;28;19920;-77
2022/03/06 03:09:31;;;;;;;;;;;3.90;61.30;;;;;;5072937;28;20487;-77
2022/03/06 03:11:57;;;;;;;;;;;4.00;60.80;;;;;;5069355;28;19924;-77
2022/03/06 03:14:24;;;;;;;;;;;4.00;61.00;;;;;;5074764;28;19921;-75
2022/03/06 03:16:51;;;;;;;;;;;4.00;61.30;;;;;;5076163;28;19920;-77
2022/03/06 03:19:18;;;;;;;;;;;4.00;61.40;;;;;;5078471;28;19927;-75
2022/03/06 03:21:45;;;;;;;;;;;4.00;59.90;;;;;;5071701;28;19921;-77
2022/03/06 03:24:12;;;;;;;;;;;4.10;58.30;;;;;;5074385;28;19920;-76
2022/03/06 03:26:39;;;;;;;;;;;4.10;57.10;;;;;;5070685;28;19920;-77
2022/03/06 03:29:05;;;;;;;;;;;4.10;56.30;;;;;;5079600;28;20276;-76
2022/03/06 03:31:32;;;;;;;;;;;4.20;55.80;;;;;;5073283;28;19920;-77
2022/03/06 03:33:59;;;;;;;;;;;4.30;54.70;;;;;;5071265;28;19927;-77
2022/03/06 03:36:26;;;;;;;;;;;4.30;53.90;;;;;;5071952;28;19981;-76
2022/03/06 03:38:53;;;;;;;;;;;4.40;53.80;;;;;;5078698;28;20284;-76
2022/03/06 03:41:22;;;;;;;;;;;4.40;53.70;;;;;;5075392;28;19951;-76
2022/03/06 03:43:49;;;;;;;;;;;4.40;53.40;;;;;;5077719;28;19924;-75
2022/03/06 03:46:16;;;;;;;;;;;4.40;53.30;;;;;;5083649;28;19980;-77
2022/03/06 03:48:42;;;;;;;;;;;4.40;53.70;;;;;;5082749;28;19927;-77
2022/03/06 03:51:10;;;;;;;;;;;4.50;53.60;;;;;;5074624;28;19920;-77
2022/03/06 03:53:36;;;;;;;;;;;4.50;53.60;;;;;;5073150;28;19952;-77
2022/03/06 03:56:06;;;;;;;;;;;4.50;53.50;;;;;;5071026;28;20384;-77
2022/03/06 03:58:33;;;;;;;;;;;4.50;52.90;;;;;;5070303;28;19920;-77
2022/03/06 04:01:00;;;;;;;;;;;4.50;52.50;;;;;;5074997;28;19928;-75
2022/03/06 04:03:28;;;;;;;;;;;4.50;52.00;;;;;;5090564;28;19928;-77
2022/03/06 04:05:54;;;;;;;;;;;4.60;51.40;;;;;;5075582;28;20315;-77
2022/03/06 04:08:21;;;;;;;;;;;4.60;51.70;;;;;;5074152;28;19920;-77
2022/03/06 04:10:48;;;;;;;;;;;4.60;52.60;;;;;;5084647;28;19920;-77
2022/03/06 04:13:15;;;;;;;;;;;4.60;52.40;;;;;;5077127;28;19921;-77
2022/03/06 04:15:41;;;;;;;;;;;4.50;51.80;;;;;;5066864;28;20437;-77
2022/03/06 04:18:08;;;;;;;;;;;4.50;50.70;;;;;;5070424;28;19981;-77
2022/03/06 04:20:35;;;;;;;;;;;4.60;49.70;;;;;;5069492;28;19958;-76
2022/03/06 04:23:02;;;;;;;;;;;4.60;49.60;;;;;;5075125;28;19927;-77
2022/03/06 04:25:28;;;;;;;;;;;4.70;48.90;;;;;;5073326;28;19974;-77
2022/03/06 04:27:55;;;;;;;;;;;4.70;48.50;;;;;;5077755;28;19924;-77
2022/03/06 04:30:22;;;;;;;;;;;4.70;48.80;;;;;;5074641;28;19943;-77
2022/03/06 04:32:50;;;;;;;;;;;4.80;48.40;;;;;;5074329;28;19982;-75
2022/03/06 04:35:16;;;;;;;;;;;4.70;48.60;;;;;;5077959;28;19943;-77
2022/03/06 04:37:43;;;;;;;;;;;4.70;49.10;;;;;;5074437;28;19960;-76
2022/03/06 04:40:10;;;;;;;;;;;4.60;48.90;;;;;;5076373;28;19924;-77
2022/03/06 04:42:37;;;;;;;;;;;4.60;49.30;;;;;;5068487;28;19920;-77
2022/03/06 04:45:04;;;;;;;;;;;4.60;49.80;;;;;;5070836;28;19928;-76
2022/03/06 04:47:31;;;;;;;;;;;4.60;49.70;;;;;;5071962;28;19928;-77
2022/03/06 04:49:57;;;;;;;;;;;4.50;49.60;;;;;;5066766;28;19974;-76
2022/03/06 04:52:24;;;;;;;;;;;4.50;49.10;;;;;;5071247;28;20513;-77
2022/03/06 04:54:51;;;;;;;;;;;4.50;48.90;;;;;;5067754;28;20303;-76
2022/03/06 04:57:18;;;;;;;;;;;4.50;49.70;;;;;;5080733;28;19981;-76
2022/03/06 04:59:44;;;;;;;;;;;4.50;49.30;;;;;;5072150;28;19924;-76
2022/03/06 05:02:11;;;;;;;;;;;4.50;49.60;;;;;;5076352;28;20454;-77
2022/03/06 05:04:38;;;;;;;;;;;4.50;48.80;;;;;;5068912;28;19966;-77
2022/03/06 05:07:05;;;;;;;;;;;4.40;49.20;;;;;;5071895;28;19970;-77
2022/03/06 05:09:32;;;;;;;;;;;4.40;49.80;;;;;;5064909;28;19963;-77
2022/03/06 05:11:58;;;;;;;;;;;4.40;49.50;;;;;;5073784;28;19920;-75
2022/03/06 05:14:25;;;;;;;;;;;4.40;49.30;;;;;;5075202;28;20410;-76
2022/03/06 05:16:52;;;;;;;;;;;4.40;49.40;;;;;;5073072;28;19986;-77
2022/03/06 05:19:18;;;;;;;;;;;4.30;49.80;;;;;;5072353;28;20336;-76
2022/03/06 05:21:45;;;;;;;;;;;4.30;49.40;;;;;;5066153;28;19967;-76
2022/03/06 05:24:12;;;;;;;;;;;4.30;49.80;;;;;;5076220;28;19921;-77
2022/03/06 05:26:39;;;;;;;;;;;4.30;50.00;;;;;;5076120;28;19920;-77
2022/03/06 05:29:05;;;;;;;;;;;4.20;50.30;;;;;;5075747;28;19924;-75
2022/03/06 05:31:32;;;;;;;;;;;4.20;50.40;;;;;;5075302;28;19963;-76
2022/03/06 05:33:59;;;;;;;;;;;4.10;50.70;;;;;;5068879;28;20007;-73
2022/03/06 05:36:26;;;;;;;;;;;4.10;51.00;;;;;;5070607;28;19955;-75
2022/03/06 05:38:53;;;;;;;;;;;4.10;51.10;;;;;;5069971;28;19920;-74
2022/03/06 05:41:20;;;;;;;;;;;4.00;51.30;;;;;;5076154;28;19924;-75
2022/03/06 05:43:47;;;;;;;;;;;3.90;51.80;;;;;;5074364;28;20312;-74
2022/03/06 05:46:14;;;;;;;;;;;3.80;52.80;;;;;;5069825;28;19969;-75
2022/03/06 05:48:40;;;;;;;;;;;3.70;53.30;;;;;;5079310;28;19924;-77
2022/03/06 05:51:07;;;;;;;;;;;3.60;53.70;;;;;;5073540;28;19924;-77
2022/03/06 05:53:34;;;;;;;;;;;3.60;54.40;;;;;;5077217;28;19921;-76
2022/03/06 05:56:01;;;;;;;;;;;3.50;55.10;;;;;;5078466;28;20332;-77
2022/03/06 05:58:28;;;;;;;;;;;3.50;55.50;;;;;;5073333;28;19920;-77
2022/03/06 06:00:55;;;;;;;;;;;3.40;55.50;;;;;;5071588;28;19932;-77
2022/03/06 06:03:22;;;;;;;;;;;3.40;55.90;;;;;;5076415;28;19920;-77
2022/03/06 06:05:49;;;;;;;;;;;3.30;56.40;;;;;;5077980;28;19955;-76
2022/03/06 06:08:21;;;;;;;;;;;3.30;57.30;;;;;;5077174;28;20388;-77
2022/03/06 06:10:48;;;;;;;;;;;3.30;57.30;;;;;;5076381;28;19952;-75
2022/03/06 06:13:15;;;;;;;;;;;3.20;57.90;;;;;;5077712;28;19925;-77
2022/03/06 06:15:43;;;;;;;;;;;3.20;58.10;;;;;;5072149;28;19920;-76
2022/03/06 06:18:10;;;;;;;;;;;3.20;58.50;;;;;;5074652;28;20372;-77
2022/03/06 06:20:37;;;;;;;;;;;3.10;59.30;;;;;;5076692;28;19920;-76
2022/03/06 06:23:04;;;;;;;;;;;3.10;59.60;;;;;;5076310;28;20338;-76
2022/03/06 06:25:31;;;;;;;;;;;3.10;59.10;;;;;;5077051;28;19990;-77
2022/03/06 06:27:58;;;;;;;;;;;3.10;59.20;;;;;;5071848;28;19986;-76
2022/03/06 06:30:25;;;;;;;;;;;3.00;59.30;;;;;;5079656;28;19950;-77
2022/03/06 06:32:52;;;;;;;;;;;3.00;59.80;;;;;;5074484;28;19928;-76
2022/03/06 06:35:18;;;;;;;;;;;2.90;59.90;;;;;;5078469;28;19920;-75
2022/03/06 06:37:45;;;;;;;;;;;2.90;59.90;;;;;;5070027;28;19944;-76
2022/03/06 06:40:12;;;;;;;;;;;2.90;59.70;;;;;;5074583;28;19990;-76
2022/03/06 06:42:39;;;;;;;;;;;2.90;59.80;;;;;;5069942;28;20376;-77
2022/03/06 06:45:05;;;;;;;;;;;2.90;60.10;;;;;;5078600;28;19955;-77
2022/03/06 06:47:32;;;;;;;;;;;2.90;60.50;;;;;;5075923;28;19950;-76
2022/03/06 06:49:59;;;;;;;;;;;2.90;59.90;;;;;;5074966;28;19955;-77
2022/03/06 06:52:26;;;;;;;;;;;3.00;60.00;;;;;;5073148;28;20024;-77
2022/03/06 06:54:52;;;;;;;;;;;3.00;59.90;;;;;;5075452;28;19928;-76
2022/03/06 06:57:19;;;;;;;;;;;3.00;60.00;;;;;;5070824;28;20454;-77
2022/03/06 06:59:46;;;;;;;;;;;3.10;59.60;;;;;;5073181;28;19921;-77
2022/03/06 07:02:13;;;;;;;;;;;3.10;59.60;;;;;;5076038;28;19942;-77
2022/03/06 07:04:40;;;;;;;;;;;3.10;59.60;;;;;;5075819;28;20349;-77
2022/03/06 07:07:07;;;;;;;;;;;3.20;59.60;;;;;;5074532;28;19942;-75
2022/03/06 07:09:33;;;;;;;;;;;3.20;60.10;;;;;;5078093;28;20033;-75
2022/03/06 07:12:00;;;;;;;;;;;3.30;59.30;;;;;;5077317;28;19920;-75
2022/03/06 07:14:27;;;;;;;;;;;3.30;59.50;;;;;;5077084;28;19943;-75
2022/03/06 07:16:53;;;;;;;;;;;3.40;60.20;;;;;;5072543;28;19920;-77
2022/03/06 07:19:20;;;;;;;;;;;3.40;59.60;;;;;;5071721;28;19966;-77
2022/03/06 07:21:47;;;;;;;;;;;3.50;60.10;;;;;;5071890;28;19927;-77
2022/03/06 07:24:14;;;;;;;;;;;3.60;60.10;;;;;;5076634;28;19995;-77
2022/03/06 07:26:40;;;;;;;;;;;3.60;59.50;;;;;;5074656;28;19977;-77
2022/03/06 07:29:07;;;;;;;;;;;3.70;59.40;;;;;;5072446;28;20376;-76
2022/03/06 07:31:34;;;;;;;;;;;3.70;59.10;;;;;;5077288;28;20391;-76
2022/03/06 07:34:01;;;;;;;;;;;3.80;59.00;;;;;;5073765;28;19977;-75
2022/03/06 07:36:27;;;;;;;;;;;3.90;58.60;;;;;;5075408;28;19956;-76
2022/03/06 07:38:54;;;;;;;;;;;4.00;57.80;;;;;;5069576;28;19924;-76
2022/03/06 07:41:21;;;;;;;;;;;4.00;57.20;;;;;;5069907;28;19924;-77
2022/03/06 07:43:48;;;;;;;;;;;4.10;56.50;;;;;;5075136;28;19924;-76
2022/03/06 07:46:14;;;;;;;;;;;4.10;56.50;;;;;;5072872;28;19967;-77
2022/03/06 07:48:42;;;;;;;;;;;4.20;55.30;;;;;;5077287;28;19921;-76
2022/03/06 07:51:08;;;;;;;;;;;4.30;54.70;;;;;;5069199;28;19920;-77
2022/03/06 07:53:35;;;;;;;;;;;4.30;55.20;;;;;;5085421;28;20289;-76
2022/03/06 07:56:02;;;;;;;;;;;4.40;55.50;;;;;;5077991;28;20445;-77
2022/03/06 07:58:29;;;;;;;;;;;4.50;54.10;;;;;;5070113;28;19921;-76
2022/03/06 08:00:56;;;;;;;;;;;4.50;54.80;;;;;;5071030;28;19948;-77
2022/03/06 08:03:23;;;;;;;;;;;4.70;54.10;;;;;;5077774;28;19924;-75
2022/03/06 08:05:49;;;;;;;;;;;4.70;53.60;;;;;;5072335;28;20376;-77
2022/03/06 08:08:16;;;;;;;;;;;4.80;52.80;;;;;;5069766;28;19971;-76
2022/03/06 08:10:43;;;;;;;;;;;4.90;52.60;;;;;;5074375;28;19924;-76
2022/03/06 08:13:10;;;;;;;;;;;5.00;52.10;;;;;;5074460;28;19921;-76
2022/03/06 08:15:37;;;;;;;;;;;5.00;50.90;;;;;;5072779;28;19986;-76
2022/03/06 08:18:04;;;;;;;;;;;5.10;51.10;;;;;;5073266;28;19927;-77
2022/03/06 08:20:30;;;;;;;;;;;5.30;50.00;;;;;;5077503;28;20445;-77
2022/03/06 08:22:57;;;;;;;;;;;5.40;50.70;;;;;;5077696;28;19959;-75
2022/03/06 08:25:24;;;;;;;;;;;5.50;49.70;;;;;;5083330;28;19970;-77
2022/03/06 08:27:51;;;;;;;;;;;5.60;49.20;;;;;;5067733;28;19982;-76
2022/03/06 08:30:18;;;;;;;;;;;5.60;48.60;;;;;;5077804;28;19943;-76
2022/03/06 08:32:45;;;;;;;;;;;5.80;48.60;;;;;;5070403;28;19977;-77
2022/03/06 08:35:11;;;;;;;;;;;5.90;49.10;;;;;;5069594;28;20611;-77
2022/03/06 08:37:38;;;;;;;;;;;6.00;49.20;;;;;;5072212;28;19928;-77
2022/03/06 08:40:05;;;;;;;;;;;6.10;49.30;;;;;;5075260;28;19998;-77
2022/03/06 08:42:32;;;;;;;;;;;6.10;48.40;;;;;;5075973;28;19924;-76
2022/03/06 08:44:59;;;;;;;;;;;6.10;47.10;;;;;;5085739;28;19920;-77
2022/03/06 08:47:26;;;;;;;;;;;6.10;47.90;;;;;;5076069;28;19925;-76
2022/03/06 08:49:52;;;;;;;;;;;6.10;48.30;;;;;;5068747;28;20003;-77
2022/03/06 08:52:19;;;;;;;;;;;6.20;48.20;;;;;;5071249;28;19943;-75
2022/03/06 08:54:46;;;;;;;;;;;6.20;48.10;;;;;;5070110;28;20387;-77
2022/03/06 08:57:12;;;;;;;;;;;6.20;47.30;;;;;;5076459;28;19924;-77
2022/03/06 08:59:39;;;;;;;;;;;6.30;48.10;;;;;;5072829;28;19920;-77
2022/03/06 09:02:06;;;;;;;;;;;6.30;47.40;;;;;;5076129;28;20549;-77
2022/03/06 09:04:33;;;;;;;;;;;6.20;46.70;;;;;;5070183;28;19971;-77
2022/03/06 09:07:00;;;;;;;;;;;6.20;47.00;;;;;;5067076;28;19924;-75
2022/03/06 09:09:27;;;;;;;;;;;6.20;47.20;;;;;;5072070;28;20299;-75
2022/03/06 09:11:54;;;;;;;;;;;6.30;47.80;;;;;;5076076;28;19920;-77
2022/03/06 09:14:21;;;;;;;;;;;6.30;47.50;;;;;;5069039;28;20300;-77
2022/03/06 09:16:47;;;;;;;;;;;6.50;47.20;;;;;;5071401;28;19970;-76
2022/03/06 09:19:14;;;;;;;;;;;6.60;46.20;;;;;;5072381;28;19920;-77
2022/03/06 09:21:43;;;;;;;;;;;6.80;46.20;;;;;;5079357;28;20368;-76
2022/03/06 09:24:10;;;;;;;;;;;7.10;45.50;;;;;;5071578;28;20529;-75
2022/03/06 09:26:38;;;;;;;;;;;7.30;44.80;;;;;;5079613;28;20406;-77
2022/03/06 09:29:05;;;;;;;;;;;7.40;44.00;;;;;;5074001;28;19970;-77
2022/03/06 09:31:32;;;;;;;;;;;7.60;45.20;;;;;;5067872;28;20175;-77
2022/03/06 09:33:59;;;;;;;;;;;7.70;44.10;;;;;;5068837;28;19920;-77
2022/03/06 09:36:46;;;;;;;;;;;7.80;43.10;;;;;;5057732;28;22069;-77
2022/03/06 09:39:13;;;;;;;;;;;8.00;43.80;;;;;;5062856;28;19928;-77
2022/03/06 09:41:40;;;;;;;;;;;8.30;42.60;;;;;;5074952;28;20330;-77
2022/03/06 09:44:08;;;;;;;;;;;8.30;41.90;;;;;;5068770;28;20414;-77
2022/03/06 09:46:35;;;;;;;;;;;8.40;41.00;;;;;;5072880;28;20450;-76
2022/03/06 09:49:03;;;;;;;;;;;8.30;39.60;;;;;;5069477;28;19928;-77
2022/03/06 09:51:33;;;;;;;;;;;8.30;40.00;;;;;;5070040;28;19928;-77
2022/03/06 09:54:00;;;;;;;;;;;8.50;40.40;;;;;;5079710;28;20189;-76
2022/03/06 09:56:27;;;;;;;;;;;8.50;37.50;;;;;;5074726;28;19931;-77
2022/03/06 09:58:54;;;;;;;;;;;8.40;37.50;;;;;;5073236;28;19928;-76
2022/03/06 10:01:20;;;;;;;;;;;8.50;36.60;;;;;;5069655;28;19935;-77
2022/03/06 10:03:48;;;;;;;;;;;8.50;38.00;;;;;;5082907;28;20438;-77
2022/03/06 10:06:14;;;;;;;;;;;8.60;38.00;;;;;;5069095;28;19924;-75
2022/03/06 10:08:41;;;;;;;;;;;8.70;37.20;;;;;;5071771;28;19924;-76
2022/03/06 10:11:12;;;;;;;;;;;8.30;36.00;;;;;;5058970;28;19979;-76
2022/03/06 10:13:43;;;;;;;;;;;8.40;35.90;;;;;;5068746;28;19928;-77
2022/03/06 10:16:10;;;;;;;;;;;8.50;36.90;;;;;;5070597;28;19931;-77
2022/03/06 10:18:38;;;;;;;;;;;8.70;37.50;;;;;;5079660;28;19924;-77
2022/03/06 10:21:08;;;;;;;;;;;8.80;37.60;;;;;;5066707;28;19929;-77
2022/03/06 10:23:35;;;;;;;;;;;8.90;37.30;;;;;;5071641;28;19970;-77
2022/03/06 10:26:22;;;;;;;;;;;9.10;37.90;;;;;;5067025;28;19928;-77
2022/03/06 10:28:59;;;;;;;;;;;9.20;37.20;;;;;;5076889;28;19948;-77
2022/03/06 10:31:27;;;;;;;;;;;9.30;36.70;;;;;;5068697;28;19929;-76
2022/03/06 10:33:59;;;;;;;;;;;9.30;36.50;;;;;;5077531;28;20265;-77
2022/03/06 10:36:34;;;;;;;;;;;9.20;36.00;;;;;;5066136;28;19924;-77
2022/03/06 10:39:02;;;;;;;;;;;9.30;36.70;;;;;;5072538;28;20457;-77
2022/03/06 10:41:40;;;;;;;;;;;9.40;36.10;;;;;;5085673;28;19924;-75
2022/03/06 10:44:08;;;;;;;;;;;9.60;36.60;;;;;;5077051;28;19928;-77
2022/03/06 10:46:36;;;;;;;;;;;9.60;36.20;;;;;;5078096;28;19924;-77
2022/03/06 10:49:08;;;;;;;;;;;9.50;36.50;;;;;;5074219;28;19924;-75
2022/03/06 10:51:36;;;;;;;;;;;9.60;36.10;;;;;;5069990;28;19935;-77
2022/03/06 10:54:03;;;;;;;;;;;9.50;36.10;;;;;;5062977;28;19925;-77
2022/03/06 10:56:30;;;;;;;;;;;9.60;36.80;;;;;;5069719;28;19929;-77
2022/03/06 10:58:57;;;;;;;;;;;9.60;36.50;;;;;;5067224;28;19929;-77
2022/03/06 11:01:27;;;;;;;;;;;9.80;36.30;;;;;;5069718;28;19925;-76
2022/03/06 11:03:56;;;;;;;;;;;9.90;36.00;;;;;;5069471;28;20410;-77
2022/03/06 11:06:23;;;;;;;;;;;10.10;35.40;;;;;;5070996;28;19924;-77
2022/03/06 11:08:50;;;;;;;;;;;10.00;34.80;;;;;;5067696;28;19931;-77
2022/03/06 11:11:19;;;;;;;;;;;10.00;35.60;;;;;;5067920;28;19924;-76
2022/03/06 11:13:47;;;;;;;;;;;10.00;35.50;;;;;;5071558;28;19932;-76
2022/03/06 11:16:14;;;;;;;;;;;9.70;35.10;;;;;;5072499;28;20455;-75
2022/03/06 11:18:42;;;;;;;;;;;9.70;36.50;;;;;;5062624;28;19925;-76
2022/03/06 11:21:09;;;;;;;;;;;9.50;35.20;;;;;;5077869;28;19925;-76
2022/03/06 11:23:41;;;;;;;;;;;9.50;35.90;;;;;;5074434;28;20026;-76
2022/03/06 11:26:17;;;;;;;;;;;9.60;37.20;;;;;;5065454;28;19924;-77
2022/03/06 11:28:53;;;;;;;;;;;9.60;36.30;;;;;;5061977;28;19928;-75
2022/03/06 11:31:21;;;;;;;;;;;9.50;35.70;;;;;;5057840;28;19925;-76
2022/03/06 11:33:55;;;;;;;;;;;9.50;36.50;;;;;;5073727;28;19933;-77
2022/03/06 11:36:24;;;;;;;;;;;9.60;36.90;;;;;;5084089;28;19978;-77
2022/03/06 11:38:52;;;;;;;;;;;9.80;36.40;;;;;;5067102;28;19928;-79
2022/03/06 11:41:19;;;;;;;;;;;10.10;36.60;;;;;;5085112;28;19974;-76
2022/03/06 11:43:50;;;;;;;;;;;10.20;37.00;;;;;;5067209;28;19986;-77
2022/03/06 11:46:18;;;;;;;;;;;10.20;35.10;;;;;;5065976;28;20003;-77
2022/03/06 11:48:45;;;;;;;;;;;10.10;34.20;;;;;;5063644;28;19925;-76
2022/03/06 11:51:21;;;;;;;;;;;10.30;35.20;;;;;;5067204;28;19932;-77
2022/03/06 11:53:52;;;;;;;;;;;10.50;35.70;;;;;;5067089;28;20868;-77
2022/03/06 11:56:34;;;;;;;;;;;10.20;34.20;;;;;;5070872;28;20376;-79
2022/03/06 11:59:07;;;;;;;;;;;10.20;35.10;;;;;;5065385;28;19936;-77
2022/03/06 12:01:41;;;;;;;;;;;10.20;34.10;;;;;;5058938;28;19925;-76
2022/03/06 12:04:09;;;;;;;;;;;10.20;35.40;;;;;;5061140;28;20845;-76
2022/03/06 12:06:40;;;;;;;;;;;10.40;35.20;;;;;;5071088;28;20277;-76
2022/03/06 12:09:16;;;;;;;;;;;10.50;35.30;;;;;;5063887;28;19924;-75
2022/03/06 12:11:43;;;;;;;;;;;10.70;35.10;;;;;;5060727;28;19996;-79
2022/03/06 12:14:11;;;;;;;;;;;10.80;34.70;;;;;;5065463;28;19932;-78
2022/03/06 12:16:57;;;;;;;;;;;10.70;34.30;;;;;;5076272;28;19947;-79
2022/03/06 12:19:24;;;;;;;;;;;10.90;34.40;;;;;;5072628;28;19924;-75
2022/03/06 12:21:51;;;;;;;;;;;10.70;34.20;;;;;;5078595;28;20552;-76
2022/03/06 12:24:27;;;;;;;;;;;10.60;34.40;;;;;;5071611;28;19924;-77
2022/03/06 12:26:54;;;;;;;;;;;10.70;34.80;;;;;;5073099;28;20393;-79
2022/03/06 12:29:40;;;;;;;;;;;10.80;34.80;;;;;;5074640;28;19928;-76
2022/03/06 12:32:40;;;;;;;;;;;10.50;34.10;;;;;;5084739;28;19925;-76
2022/03/06 12:35:09;;;;;;;;;;;10.30;34.70;;;;;;5038219;28;19924;-75
2022/03/06 12:37:41;;;;;;;;;;;10.40;35.00;;;;;;5077280;28;19925;-76
2022/03/06 12:40:09;;;;;;;;;;;10.40;35.20;;;;;;5070810;28;19924;-75
2022/03/06 12:42:37;;;;;;;;;;;10.80;36.70;;;;;;5071343;28;19948;-79
2022/03/06 12:45:06;;;;;;;;;;;10.90;34.60;;;;;;5070429;28;19932;-76
2022/03/06 12:47:34;;;;;;;;;;;11.20;35.40;;;;;;5072236;28;19924;-77
2022/03/06 12:50:02;;;;;;;;;;;11.50;34.20;;;;;;5071183;28;19935;-80
2022/03/06 12:52:29;;;;;;;;;;;11.40;33.60;;;;;;5074321;28;19978;-76
2022/03/06 12:55:01;;;;;;;;;;;11.50;33.30;;;;;;5074692;28;19929;-79
2022/03/06 12:57:30;;;;;;;;;;;11.50;33.10;;;;;;5057908;28;20335;-75
2022/03/06 12:59:56;;;;;;;;;;;11.70;32.60;;;;;;5067584;28;19932;-76
2022/03/06 13:02:23;;;;;;;;;;;11.80;32.90;;;;;;5066839;28;20411;-77
2022/03/06 13:04:52;;;;;;;;;;;11.60;32.50;;;;;;5066227;28;19929;-77
2022/03/06 13:07:26;;;;;;;;;;;11.60;32.40;;;;;;5064883;28;19950;-77
2022/03/06 13:09:56;;;;;;;;;;;11.80;32.70;;;;;;5067688;28;20384;-76
2022/03/06 13:12:26;;;;;;;;;;;11.80;32.20;;;;;;5067752;28;19924;-76
2022/03/06 13:14:53;;;;;;;;;;;11.70;32.20;;;;;;5067339;28;19924;-77
2022/03/06 13:17:20;;;;;;;;;;;11.80;32.90;;;;;;5069602;28;19946;-77
2022/03/06 13:19:48;;;;;;;;;;;11.80;33.60;;;;;;5081069;28;19925;-76
2022/03/06 13:22:16;;;;;;;;;;;11.90;32.70;;;;;;5067241;28;19994;-76
2022/03/06 13:24:46;;;;;;;;;;;11.90;32.30;;;;;;5065046;28;19928;-77
2022/03/06 13:27:20;;;;;;;;;;;12.10;32.80;;;;;;5071391;28;19925;-75
2022/03/06 13:30:11;;;;;;;;;;;11.90;33.20;;;;;;5071745;28;19939;-77
2022/03/06 13:32:46;;;;;;;;;;;12.00;32.00;;;;;;5046089;28;20503;-77
2022/03/06 13:35:25;;;;;;;;;;;12.30;32.40;;;;;;5068935;28;19933;-77
2022/03/06 13:37:55;;;;;;;;;;;12.10;31.80;;;;;;5064840;28;19928;-76
2022/03/06 13:40:24;;;;;;;;;;;12.20;32.90;;;;;;5072258;28;19929;-78
2022/03/06 13:42:51;;;;;;;;;;;12.10;32.50;;;;;;5071965;28;19988;-77
2022/03/06 13:45:17;;;;;;;;;;;12.40;33.50;;;;;;5082827;28;20383;-76
2022/03/06 13:47:48;;;;;;;;;;;12.30;31.50;;;;;;5072587;28;20420;-76
2022/03/06 13:50:31;;;;;;;;;;;12.30;31.50;;;;;;5067641;28;19936;-77
2022/03/06 13:52:58;;;;;;;;;;;12.30;30.90;;;;;;5069842;28;19928;-76
2022/03/06 13:55:25;;;;;;;;;;;12.10;31.70;;;;;;5064453;28;20298;-77
2022/03/06 13:57:58;;;;;;;;;;;12.00;31.30;;;;;;5062744;28;19966;-76
2022/03/06 14:00:26;;;;;;;;;;;12.20;32.30;;;;;;5069143;28;19928;-78
2022/03/06 14:03:03;;;;;;;;;;;12.20;32.90;;;;;;5064202;28;19929;-76
2022/03/06 14:05:31;;;;;;;;;;;12.20;32.10;;;;;;5069463;28;19974;-77
2022/03/06 14:08:11;;;;;;;;;;;12.50;33.00;;;;;;5073686;28;19931;-76
2022/03/06 14:10:38;;;;;;;;;;;12.80;32.70;;;;;;5075320;28;19947;-76
2022/03/06 14:13:18;;;;;;;;;;;13.00;32.20;;;;;;5072646;28;19929;-77
2022/03/06 14:15:45;;;;;;;;;;;12.90;30.80;;;;;;5080215;28;19932;-77
2022/03/06 14:18:12;;;;;;;;;;;12.50;30.80;;;;;;5073726;28;19931;-77
2022/03/06 14:20:45;;;;;;;;;;;12.00;31.20;;;;;;5062026;28;19924;-77
2022/03/06 14:23:12;;;;;;;;;;;11.70;31.80;;;;;;5077773;28;19936;-78
2022/03/06 14:25:39;;;;;;;;;;;11.90;32.70;;;;;;5067501;28;19925;-76
2022/03/06 14:28:05;;;;;;;;;;;12.30;33.00;;;;;;5069681;28;19935;-77
2022/03/06 14:30:32;;;;;;;;;;;12.60;32.80;;;;;;5073305;28;19982;-77